Gambell Airport Gambell US
ICAO: PAGM
IATA:
Category: Medium
Scheduled Services:

Elevation: 27 ft
TransAlt. 0 ft.

Airport Communications:
AWOS 3:125.9
ANCHORAGE CNTR:132.2
CTAF:122.7
NOME RDO:122
TWEB:36.9

PAGM Zoom In..

Runways:

(A) RW 16 length 4499 ft width 96 ft
---- / hdg 160

(B) RW 34 length 4499 ft width 96 ft
---- / hdg 340

Location; PAGM
Day. 29 / Time. 14.56 Zulu
* Altimeter: 29.52
* Temperature: -03° c. -26.6°f.
* Wind from: 350° Speed 24 kn.
Dewpoint: -07° c.
Visibility: 10 Statute Miles.
Clouds: Broken 2200 ft.

PAGM 291456Z AUTO 35024KT 10SM BKN022 M03/M07 A2952 RMK AO2 PK WND 34030/1417 SNE17 SLP001 P0000 60000 T10331072 57004 FZRANO

Going to: --> -->


Wind From 350°
Speed 24 kn.

 
 
jpsmedia worldairports.se 2020   terms of use